Time;durP1;ratioP1;P1;durP2;ratioP2;P2;SDS_P1;SDS_P2;PMS_P1;PMS_P2;Temp;Humidity;BMP_temperature;BMP_pressure;BME280_temperature;BME280_humidity;BME280_pressure;Samples;Min_cycle;Max_cycle;Signal;HPM_P1;HPM_P2
2024/02/23 14:43:06;;;;;;;7.63;2.30;;;10.30;99.90;;;;;;4984552;27;20611;-66
2024/02/23 14:45:32;;;;;;;7.90;2.65;;;10.40;99.90;;;;;;5007297;28;20722;-65
2024/02/23 14:47:58;;;;;;;5.22;2.10;;;10.50;99.90;;;;;;5019928;28;20333;-63
2024/02/23 14:50:24;;;;;;;7.45;2.38;;;10.40;99.90;;;;;;5040024;28;20248;-63
2024/02/23 14:52:50;;;;;;;5.53;2.42;;;10.30;99.90;;;;;;5037094;28;20221;-64
2024/02/23 14:55:16;;;;;;;6.57;2.63;;;10.20;99.90;;;;;;5037897;28;20203;-65
2024/02/23 14:57:43;;;;;;;6.75;2.80;;;10.00;99.90;;;;;;5037673;28;20191;-65
2024/02/23 15:00:09;;;;;;;5.05;2.15;;;9.80;99.90;;;;;;5038395;28;20218;-66
2024/02/23 15:02:35;;;;;;;10.20;3.25;;;9.60;99.90;;;;;;5037765;28;20221;-62
2024/02/23 15:05:01;;;;;;;7.22;2.90;;;9.30;99.90;;;;;;5038000;28;20205;-78
2024/02/23 15:07:28;;;;;;;5.07;2.17;;;8.90;99.90;;;;;;5039005;28;20187;-64
2024/02/23 15:09:53;;;;;;;9.05;3.42;;;8.60;99.90;;;;;;5037754;28;20202;-65
2024/02/23 15:12:21;;;;;;;7.13;2.90;;;8.40;99.90;;;;;;5024481;28;20199;-65
2024/02/23 15:14:47;;;;;;;7.53;2.90;;;8.20;99.90;;;;;;5038324;28;20202;-65
2024/02/23 15:17:13;;;;;;;6.82;2.80;;;8.10;99.90;;;;;;5035657;28;20200;-65
2024/02/23 15:19:38;;;;;;;6.43;2.50;;;8.10;99.90;;;;;;5038245;28;20207;-65
2024/02/23 15:22:07;;;;;;;9.80;2.70;;;8.10;99.90;;;;;;5038086;28;20207;-63
2024/02/23 15:24:33;;;;;;;6.07;1.95;;;8.10;99.90;;;;;;5038619;28;20189;-67
2024/02/23 15:26:59;;;;;;;3.78;1.77;;;8.20;99.90;;;;;;5037551;28;20183;-66
2024/02/23 15:29:25;;;;;;;2.75;1.92;;;8.10;99.90;;;;;;5038309;28;20194;-63
2024/02/23 15:31:51;;;;;;;6.05;2.00;;;8.10;99.90;;;;;;5038373;28;20282;-63
2024/02/23 15:34:17;;;;;;;3.05;2.08;;;8.10;99.90;;;;;;5037340;28;20246;-66
2024/02/23 15:36:42;;;;;;;4.68;2.22;;;8.10;99.90;;;;;;5037738;28;20207;-65
2024/02/23 15:39:08;;;;;;;5.82;2.33;;;8.10;99.90;;;;;;5037486;28;21093;-67
2024/02/23 15:41:34;;;;;;;7.57;2.80;;;8.10;99.90;;;;;;5037590;28;20227;-66
2024/02/23 15:44:01;;;;;;;6.70;2.92;;;8.00;99.90;;;;;;5037961;28;20276;-65
2024/02/23 15:46:28;;;;;;;9.73;3.60;;;8.00;99.90;;;;;;5037222;28;20188;-66
2024/02/23 15:48:54;;;;;;;7.80;3.30;;;8.00;99.90;;;;;;5037231;28;20199;-66
2024/02/23 15:51:20;;;;;;;11.27;3.63;;;8.00;99.90;;;;;;5038317;28;20241;-64
2024/02/23 15:53:46;;;;;;;8.80;3.85;;;8.00;99.90;;;;;;5028035;28;20677;-66
2024/02/23 15:56:12;;;;;;;9.27;3.75;;;8.00;99.90;;;;;;5024201;28;20299;-65
2024/02/23 15:58:38;;;;;;;9.35;3.80;;;8.00;99.90;;;;;;5023499;28;20325;-64
2024/02/23 16:01:05;;;;;;;8.15;3.90;;;8.00;99.90;;;;;;5024082;28;20285;-77
2024/02/23 16:03:30;;;;;;;8.65;3.60;;;8.00;99.90;;;;;;5023743;28;20779;-62
2024/02/23 16:05:56;;;;;;;9.93;4.38;;;8.00;99.90;;;;;;5023247;28;20282;-66
2024/02/23 16:08:45;;;;;;;10.23;3.60;;;8.00;99.90;;;;;;5023956;28;20210;-69
2024/02/23 16:11:12;;;;;;;8.15;3.67;;;8.00;99.90;;;;;;5020816;28;20559;-64
2024/02/23 16:13:42;;;;;;;10.98;3.90;;;8.20;99.90;;;;;;5025385;28;20211;-65
2024/02/23 16:16:10;;;;;;;11.13;5.15;;;8.10;99.90;;;;;;5038903;28;20273;-63
2024/02/23 16:18:37;;;;;;;9.20;4.15;;;8.10;99.90;;;;;;5023482;28;20230;-66
2024/02/23 16:21:03;;;;;;;9.93;4.93;;;8.10;99.90;;;;;;5022535;28;20445;-65
2024/02/23 16:23:29;;;;;;;9.43;4.32;;;8.30;99.90;;;;;;5024293;28;20191;-66
2024/02/23 16:25:55;;;;;;;10.80;3.90;;;8.30;99.90;;;;;;5023504;28;20241;-66
2024/02/23 16:28:21;;;;;;;11.70;4.32;;;8.30;99.90;;;;;;5023861;28;20199;-66
2024/02/23 16:30:47;;;;;;;6.95;3.67;;;8.30;99.90;;;;;;5023988;28;20279;-75
2024/02/23 16:33:14;;;;;;;7.38;3.90;;;8.30;99.90;;;;;;5023477;28;20279;-64
2024/02/23 16:35:40;;;;;;;9.45;3.60;;;8.30;99.90;;;;;;5023496;28;20265;-64
2024/02/23 16:38:06;;;;;;;9.20;4.03;;;8.30;99.90;;;;;;5023138;28;20200;-66
2024/02/23 16:40:32;;;;;;;9.32;3.65;;;8.30;99.90;;;;;;5023116;28;20184;-64
2024/02/23 16:42:59;;;;;;;7.22;3.10;;;8.30;99.90;;;;;;5022487;28;20323;-64
2024/02/23 16:45:25;;;;;;;8.88;3.72;;;8.30;99.90;;;;;;5023126;28;20183;-67
2024/02/23 16:47:51;;;;;;;8.25;4.38;;;8.20;99.90;;;;;;5021748;28;20954;-69
2024/02/23 16:50:17;;;;;;;11.70;4.07;;;8.20;99.90;;;;;;5023284;28;20196;-65
2024/02/23 16:52:43;;;;;;;12.90;4.05;;;8.20;99.90;;;;;;5023465;28;20176;-66
2024/02/23 16:55:09;;;;;;;7.20;3.78;;;8.20;99.90;;;;;;5023124;28;20204;-64
2024/02/23 16:57:35;;;;;;;11.00;4.70;;;8.20;99.90;;;;;;5021900;28;20177;-65
2024/02/23 17:00:01;;;;;;;12.23;3.95;;;8.20;99.90;;;;;;5028058;28;20196;-67
2024/02/23 17:02:27;;;;;;;8.40;3.60;;;8.20;99.90;;;;;;5023038;28;20223;-68
2024/02/23 17:04:53;;;;;;;8.73;3.30;;;8.20;99.90;;;;;;5021770;28;20203;-65
2024/02/23 17:07:19;;;;;;;8.63;3.85;;;8.20;99.90;;;;;;5021774;28;20196;-63
2024/02/23 17:09:46;;;;;;;6.40;3.22;;;8.30;99.90;;;;;;5021049;28;20192;-63
2024/02/23 17:12:18;;;;;;;10.13;3.60;;;8.30;99.90;;;;;;5022834;28;20238;-67
2024/02/23 17:14:44;;;;;;;9.77;3.60;;;8.30;99.90;;;;;;5021930;28;20604;-65
2024/02/23 17:17:10;;;;;;;7.38;3.78;;;8.30;99.90;;;;;;5022160;28;20204;-66
2024/02/23 17:19:36;;;;;;;11.52;3.60;;;8.30;99.90;;;;;;5024264;28;20707;-65
2024/02/23 17:22:02;;;;;;;7.63;3.50;;;8.30;99.90;;;;;;5021996;28;20216;-63
2024/02/23 17:24:27;;;;;;;8.35;3.45;;;8.30;99.90;;;;;;5024215;28;20679;-64
2024/02/23 17:26:53;;;;;;;9.65;3.20;;;8.30;99.90;;;;;;5037718;28;20229;-65
2024/02/23 17:29:19;;;;;;;13.60;7.07;;;8.40;99.90;;;;;;5022416;28;20562;-67
2024/02/23 17:31:44;;;;;;;6.75;3.53;;;8.40;99.90;;;;;;5022231;28;20199;-67
2024/02/23 17:34:11;;;;;;;10.27;3.95;;;8.40;99.90;;;;;;5022195;28;20283;-66
2024/02/23 17:36:42;;;;;;;10.38;4.47;;;8.50;99.90;;;;;;5022221;28;20283;-67
2024/02/23 17:39:08;;;;;;;12.68;3.83;;;8.50;99.90;;;;;;5022111;28;20747;-65
2024/02/23 17:41:34;;;;;;;12.40;4.40;;;8.40;99.90;;;;;;5021711;28;20310;-64
2024/02/23 17:44:00;;;;;;;6.80;4.15;;;8.50;99.90;;;;;;5021216;28;20639;-64
2024/02/23 17:46:25;;;;;;;9.23;3.65;;;8.50;99.90;;;;;;5022242;28;20202;-65
2024/02/23 17:48:51;;;;;;;12.77;3.90;;;8.50;99.90;;;;;;5021807;28;20223;-65
2024/02/23 17:51:17;;;;;;;5.85;3.03;;;8.50;99.90;;;;;;5022640;28;20199;-65
2024/02/23 17:53:43;;;;;;;10.98;3.85;;;8.40;99.90;;;;;;5022327;28;20196;-65
2024/02/23 17:56:09;;;;;;;6.57;3.38;;;8.40;99.90;;;;;;5004040;28;20676;-64
2024/02/23 17:58:36;;;;;;;11.30;3.45;;;8.40;99.90;;;;;;5021794;28;20215;-65
2024/02/23 18:01:05;;;;;;;6.30;3.17;;;8.50;99.90;;;;;;5036627;28;20191;-63
2024/02/23 18:03:31;;;;;;;6.28;3.15;;;8.50;99.90;;;;;;5021095;28;20192;-65
2024/02/23 18:05:57;;;;;;;10.50;3.35;;;8.50;99.90;;;;;;5021569;28;20200;-64
2024/02/23 18:08:23;;;;;;;9.45;3.75;;;8.50;99.90;;;;;;5021881;28;20242;-64
2024/02/23 18:10:48;;;;;;;9.70;3.50;;;8.50;99.90;;;;;;5021415;28;20187;-64
2024/02/23 18:13:14;;;;;;;9.57;3.53;;;8.50;99.90;;;;;;5021793;28;20303;-64
2024/02/23 18:15:40;;;;;;;12.55;4.53;;;8.50;99.90;;;;;;5021687;28;20192;-67
2024/02/23 18:18:07;;;;;;;8.43;3.55;;;8.50;99.90;;;;;;5026748;28;20678;-65
2024/02/23 18:20:33;;;;;;;8.20;3.55;;;8.50;99.90;;;;;;5021113;28;20661;-65
2024/02/23 18:22:58;;;;;;;8.60;3.53;;;8.50;99.90;;;;;;5020816;28;20261;-63
2024/02/23 18:25:24;;;;;;;7.03;3.55;;;8.50;99.90;;;;;;5021679;28;20868;-76
2024/02/23 18:27:50;;;;;;;7.20;3.30;;;8.40;99.90;;;;;;5022511;28;20187;-64
2024/02/23 18:30:16;;;;;;;7.65;3.22;;;8.40;99.90;;;;;;5022305;28;20250;-77
2024/02/23 18:32:42;;;;;;;10.25;3.92;;;8.50;99.90;;;;;;5006256;28;20233;-68
2024/02/23 18:35:09;;;;;;;9.90;3.58;;;8.40;99.90;;;;;;5020979;28;20207;-64
2024/02/23 18:37:37;;;;;;;9.98;3.58;;;8.40;99.90;;;;;;5021016;28;20203;-69
2024/02/23 18:40:06;;;;;;;6.63;2.83;;;8.40;99.90;;;;;;5021625;28;20538;-71
2024/02/23 18:42:32;;;;;;;6.13;3.30;;;8.40;99.90;;;;;;5003984;28;21049;-68
2024/02/23 18:44:58;;;;;;;5.07;2.78;;;8.40;99.90;;;;;;5020944;28;20195;-64
2024/02/23 18:47:24;;;;;;;6.93;2.70;;;8.30;99.90;;;;;;5020756;28;20250;-65
2024/02/23 18:49:50;;;;;;;8.70;3.05;;;8.30;99.90;;;;;;5020582;28;20781;-64
2024/02/23 18:52:16;;;;;;;6.43;2.95;;;8.20;99.90;;;;;;5020804;28;20219;-64
2024/02/23 18:54:42;;;;;;;5.50;3.13;;;8.10;99.90;;;;;;5020738;28;20199;-63
2024/02/23 18:57:09;;;;;;;5.78;3.05;;;8.00;99.90;;;;;;5018955;28;20200;-65
2024/02/23 18:59:34;;;;;;;5.68;2.67;;;7.90;99.90;;;;;;5020850;28;20344;-68
2024/02/23 19:02:00;;;;;;;6.30;2.92;;;7.80;99.90;;;;;;5019853;28;20219;-69
2024/02/23 19:04:26;;;;;;;7.32;3.20;;;7.80;99.90;;;;;;5008236;28;20195;-68
2024/02/23 19:06:52;;;;;;;4.82;2.80;;;7.70;99.90;;;;;;5020403;28;20196;-71
2024/02/23 19:09:18;;;;;;;7.25;3.05;;;7.60;99.90;;;;;;5021345;28;20199;-69
2024/02/23 19:11:43;;;;;;;4.70;3.17;;;7.50;99.90;;;;;;5020806;28;20188;-69
2024/02/23 19:14:09;;;;;;;6.82;2.90;;;7.50;99.90;;;;;;5020532;28;20199;-63
2024/02/23 19:16:35;;;;;;;15.27;7.50;;;7.40;99.90;;;;;;5035697;28;20637;-68
2024/02/23 19:19:05;;;;;;;6.15;3.38;;;7.30;99.90;;;;;;5020911;28;20204;-66
2024/02/23 19:21:31;;;;;;;11.70;3.42;;;7.30;99.90;;;;;;5006918;28;20219;-65
2024/02/23 19:23:57;;;;;;;9.57;3.85;;;7.20;99.90;;;;;;5020679;28;20191;-66
2024/02/23 19:26:23;;;;;;;9.57;3.65;;;7.20;99.90;;;;;;5020765;28;20535;-65
2024/02/23 19:28:50;;;;;;;7.70;3.60;;;7.10;99.90;;;;;;5023361;28;20207;-65
2024/02/23 19:31:17;;;;;;;9.15;4.03;;;7.10;99.90;;;;;;5024923;28;20287;-66
2024/02/23 19:33:43;;;;;;;8.95;3.53;;;7.00;99.90;;;;;;5023868;28;20306;-64
2024/02/23 19:36:11;;;;;;;7.03;3.33;;;7.00;99.90;;;;;;5024936;28;20195;-64
2024/02/23 19:38:37;;;;;;;5.82;3.40;;;7.00;99.90;;;;;;5023832;28;20203;-65
2024/02/23 19:41:03;;;;;;;6.75;2.92;;;7.00;99.90;;;;;;5023649;28;20204;-65
2024/02/23 19:43:29;;;;;;;7.85;3.35;;;7.00;99.90;;;;;;5024368;28;20249;-64
2024/02/23 19:45:55;;;;;;;7.50;3.45;;;7.10;99.90;;;;;;5024354;28;20188;-66
2024/02/23 19:48:21;;;;;;;9.15;3.35;;;7.10;99.90;;;;;;5038511;28;20334;-64
2024/02/23 19:50:47;;;;;;;8.82;3.60;;;7.10;99.90;;;;;;5025158;28;20715;-65
2024/02/23 19:53:13;;;;;;;8.13;3.80;;;7.20;99.90;;;;;;5024028;28;20559;-64
2024/02/23 19:55:41;;;;;;;5.18;2.90;;;7.20;99.90;;;;;;5023908;28;20192;-63
2024/02/23 19:58:07;;;;;;;6.93;3.33;;;7.30;99.90;;;;;;5022971;28;20460;-64
2024/02/23 20:00:33;;;;;;;5.82;3.10;;;7.40;99.90;;;;;;5024178;28;20195;-64
2024/02/23 20:02:59;;;;;;;5.55;2.90;;;7.30;99.90;;;;;;5024348;28;20215;-64
2024/02/23 20:05:28;;;;;;;6.53;3.25;;;7.40;99.90;;;;;;5023717;28;20180;-64
2024/02/23 20:07:54;;;;;;;5.10;3.10;;;7.40;99.90;;;;;;5023609;28;20298;-64
2024/02/23 20:10:20;;;;;;;5.38;2.95;;;7.40;99.90;;;;;;5024346;28;20287;-64
2024/02/23 20:12:51;;;;;;;5.55;3.20;;;7.40;99.90;;;;;;5023977;28;20192;-65
2024/02/23 20:15:17;;;;;;;11.05;2.95;;;7.40;99.90;;;;;;5023523;28;20312;-65
2024/02/23 20:17:46;;;;;;;8.90;3.28;;;7.40;99.90;;;;;;5023640;28;20626;-65
2024/02/23 20:20:16;;;;;;;8.63;2.90;;;7.40;99.90;;;;;;5023993;28;20192;-65
2024/02/23 20:22:41;;;;;;;7.55;3.15;;;7.40;99.90;;;;;;5023407;28;20220;-66
2024/02/23 20:25:08;;;;;;;8.63;2.97;;;7.50;99.90;;;;;;5023682;28;20282;-63
2024/02/23 20:27:34;;;;;;;7.13;3.10;;;7.50;99.90;;;;;;5023757;28;20195;-65
2024/02/23 20:30:00;;;;;;;12.00;3.13;;;7.50;99.90;;;;;;5023344;28;20204;-64
2024/02/23 20:32:25;;;;;;;7.68;3.10;;;7.50;99.90;;;;;;5023694;28;20246;-64
2024/02/23 20:34:51;;;;;;;4.22;2.72;;;7.50;99.90;;;;;;5023424;28;20572;-63
2024/02/23 20:37:17;;;;;;;6.65;3.25;;;7.60;99.90;;;;;;5023357;28;20206;-63
2024/02/23 20:39:42;;;;;;;5.50;2.80;;;7.60;99.90;;;;;;5023474;28;20188;-64
2024/02/23 20:42:10;;;;;;;12.45;4.57;;;7.70;99.90;;;;;;5021596;28;21431;-64
2024/02/23 20:44:35;;;;;;;7.72;3.80;;;7.70;99.90;;;;;;5023655;28;20184;-64
2024/02/23 20:47:02;;;;;;;12.63;4.22;;;7.70;99.90;;;;;;5024481;28;20203;-64
2024/02/23 20:49:30;;;;;;;9.48;4.00;;;7.70;99.90;;;;;;5022623;28;20183;-65
2024/02/23 20:51:56;;;;;;;7.72;4.00;;;7.70;99.90;;;;;;5022949;28;20200;-64
2024/02/23 20:54:22;;;;;;;6.47;3.38;;;7.80;99.90;;;;;;5022613;28;20196;-64
2024/02/23 20:56:48;;;;;;;6.13;2.70;;;7.80;99.90;;;;;;5022934;28;20206;-64
2024/02/23 20:59:14;;;;;;;6.72;2.78;;;7.80;99.90;;;;;;5023050;28;20191;-62
2024/02/23 21:01:40;;;;;;;5.65;2.58;;;7.80;99.90;;;;;;5022977;28;20691;-64
2024/02/23 21:04:05;;;;;;;6.10;3.05;;;7.80;99.90;;;;;;5023246;28;20180;-61
2024/02/23 21:06:32;;;;;;;5.15;2.70;;;7.80;99.90;;;;;;5023331;28;20194;-63
2024/02/23 21:08:59;;;;;;;8.85;3.00;;;7.70;99.90;;;;;;5022901;28;20200;-62
2024/02/23 21:11:25;;;;;;;5.90;2.80;;;7.80;99.90;;;;;;5022224;28;20200;-64
2024/02/23 21:13:51;;;;;;;9.00;3.22;;;7.80;99.90;;;;;;5022402;28;20222;-64
2024/02/23 21:16:17;;;;;;;9.57;3.30;;;7.70;99.90;;;;;;5022717;28;20249;-64
2024/02/23 21:18:43;;;;;;;8.25;3.20;;;7.70;99.90;;;;;;5022944;28;20195;-65
2024/02/23 21:21:08;;;;;;;7.63;3.15;;;7.70;99.90;;;;;;5022624;28;20265;-65
2024/02/23 21:23:34;;;;;;;4.20;2.72;;;7.80;99.90;;;;;;5022517;28;20191;-64
2024/02/23 21:26:00;;;;;;;8.90;3.40;;;7.80;99.90;;;;;;5022113;28;20275;-63
2024/02/23 21:28:26;;;;;;;5.75;3.20;;;7.80;99.90;;;;;;5024146;28;20184;-65
2024/02/23 21:30:53;;;;;;;6.60;3.35;;;7.80;99.90;;;;;;5022759;28;21275;-63
2024/02/23 21:33:19;;;;;;;8.55;3.85;;;7.80;99.90;;;;;;5022483;28;20557;-64
2024/02/23 21:35:45;;;;;;;7.15;2.97;;;7.80;99.90;;;;;;5022539;28;20195;-63
2024/02/23 21:38:12;;;;;;;8.75;3.50;;;7.80;99.90;;;;;;5022264;28;20199;-63
2024/02/23 21:40:37;;;;;;;6.75;3.20;;;7.80;99.90;;;;;;5022531;28;20210;-64
2024/02/23 21:43:04;;;;;;;10.07;4.60;;;7.80;99.90;;;;;;5021935;28;20223;-62
2024/02/23 21:45:30;;;;;;;11.50;4.55;;;7.80;99.90;;;;;;5022375;28;20198;-63
2024/02/23 21:47:55;;;;;;;11.00;3.80;;;7.80;99.90;;;;;;5022505;28;20188;-63
2024/02/23 21:50:21;;;;;;;9.27;4.40;;;7.80;99.90;;;;;;5021480;28;20219;-63
2024/02/23 21:52:47;;;;;;;12.57;4.97;;;7.80;99.90;;;;;;5022190;28;20365;-63
2024/02/23 21:55:13;;;;;;;14.20;5.15;;;7.70;99.90;;;;;;5021010;28;20208;-64
2024/02/23 21:57:39;;;;;;;12.18;5.35;;;7.70;99.90;;;;;;5021906;28;21001;-64
2024/02/23 22:00:06;;;;;;;10.95;4.60;;;7.60;99.90;;;;;;5023518;28;20254;-65
2024/02/23 22:02:32;;;;;;;12.52;5.10;;;7.60;99.90;;;;;;5021746;28;20211;-63
2024/02/23 22:04:57;;;;;;;11.73;4.45;;;7.60;99.90;;;;;;5021534;28;20605;-66
2024/02/23 22:07:24;;;;;;;12.88;4.75;;;7.50;99.90;;;;;;5022137;28;20226;-63
2024/02/23 22:09:56;;;;;;;10.85;4.05;;;7.50;99.90;;;;;;5022257;28;20552;-64
2024/02/23 22:12:26;;;;;;;9.20;4.60;;;7.60;99.90;;;;;;5023287;28;20267;-65
2024/02/23 22:14:52;;;;;;;11.52;4.53;;;7.50;99.90;;;;;;5022035;28;20238;-63
2024/02/23 22:17:18;;;;;;;10.93;4.47;;;7.50;99.90;;;;;;5022097;28;20192;-66
2024/02/23 22:19:44;;;;;;;9.02;4.97;;;7.60;99.90;;;;;;5021582;28;20199;-64
2024/02/23 22:22:10;;;;;;;9.13;4.00;;;7.60;99.90;;;;;;5024577;28;20216;-63
2024/02/23 22:24:35;;;;;;;7.38;3.80;;;7.50;99.90;;;;;;5021862;28;20195;-63
2024/02/23 22:27:01;;;;;;;7.20;3.70;;;7.60;99.90;;;;;;5021649;28;20241;-63
2024/02/23 22:29:28;;;;;;;9.80;4.05;;;7.60;99.90;;;;;;5021578;28;20195;-65
2024/02/23 22:31:54;;;;;;;7.55;3.67;;;7.50;99.90;;;;;;5021344;28;20203;-65
2024/02/23 22:34:19;;;;;;;8.25;3.92;;;7.60;99.90;;;;;;5021887;28;20258;-64
2024/02/23 22:36:45;;;;;;;10.52;3.50;;;7.50;99.90;;;;;;5021575;28;20286;-62
2024/02/23 22:39:11;;;;;;;6.32;3.33;;;7.50;99.90;;;;;;5021339;28;20980;-64
2024/02/23 22:41:38;;;;;;;7.80;3.30;;;7.60;99.90;;;;;;5021275;28;20300;-63
2024/02/23 22:44:05;;;;;;;9.68;3.60;;;7.60;99.90;;;;;;5021438;28;20525;-64
2024/02/23 22:46:31;;;;;;;5.95;3.08;;;7.50;99.90;;;;;;5024518;28;20192;-64
2024/02/23 22:48:57;;;;;;;8.10;5.43;;;7.50;99.90;;;;;;5021901;28;20192;-63
2024/02/23 22:51:22;;;;;;;7.72;3.53;;;7.50;99.90;;;;;;5021341;28;20202;-63
2024/02/23 22:53:48;;;;;;;7.25;3.28;;;7.40;99.90;;;;;;5021736;28;20188;-63
2024/02/23 22:56:15;;;;;;;6.55;3.03;;;7.50;99.90;;;;;;5021223;28;20257;-63
2024/02/23 22:58:41;;;;;;;6.85;2.40;;;7.50;99.90;;;;;;5021365;28;20192;-63
2024/02/23 23:01:09;;;;;;;6.75;2.58;;;7.50;99.90;;;;;;5020809;28;20287;-62
2024/02/23 23:03:35;;;;;;;4.45;2.35;;;7.50;99.90;;;;;;5022725;28;20222;-65
2024/02/23 23:06:01;;;;;;;8.65;2.60;;;7.50;99.90;;;;;;5025797;28;20271;-64
2024/02/23 23:08:28;;;;;;;7.05;3.03;;;7.50;99.90;;;;;;5027483;28;20275;-64
2024/02/23 23:10:54;;;;;;;5.30;2.65;;;7.50;99.90;;;;;;5025607;28;20254;-63
2024/02/23 23:13:19;;;;;;;5.45;2.63;;;7.50;99.90;;;;;;5025177;28;20223;-62
2024/02/23 23:15:45;;;;;;;6.07;2.70;;;7.50;99.90;;;;;;5025205;28;20227;-65
2024/02/23 23:18:11;;;;;;;7.57;2.58;;;7.50;99.90;;;;;;5025083;28;21260;-63
2024/02/23 23:20:37;;;;;;;4.18;2.60;;;7.50;99.90;;;;;;5024588;28;20678;-63
2024/02/23 23:23:03;;;;;;;6.63;2.50;;;7.50;99.90;;;;;;5024905;28;20324;-65
2024/02/23 23:25:29;;;;;;;6.45;2.70;;;7.50;99.90;;;;;;5027736;28;20192;-65
2024/02/23 23:27:54;;;;;;;6.88;2.90;;;7.50;99.90;;;;;;5027168;28;20310;-64
2024/02/23 23:30:20;;;;;;;7.82;2.72;;;7.50;99.90;;;;;;5024603;28;20237;-63
2024/02/23 23:32:46;;;;;;;6.13;2.50;;;7.50;99.90;;;;;;5025130;28;20192;-64
2024/02/23 23:35:12;;;;;;;5.35;2.83;;;7.50;99.90;;;;;;5025000;28;20204;-65
2024/02/23 23:37:38;;;;;;;5.10;2.80;;;7.50;99.90;;;;;;5024532;28;20789;-64
2024/02/23 23:40:04;;;;;;;6.68;2.70;;;7.50;99.90;;;;;;5024156;28;20192;-63
2024/02/23 23:42:30;;;;;;;6.15;2.55;;;7.40;99.90;;;;;;5024470;28;20234;-66
2024/02/23 23:44:55;;;;;;;6.85;3.13;;;7.40;99.90;;;;;;5025079;28;20271;-64
2024/02/23 23:47:21;;;;;;;6.03;3.15;;;7.40;99.90;;;;;;5024627;28;20671;-64
2024/02/23 23:49:47;;;;;;;6.57;2.92;;;7.40;99.90;;;;;;5024429;28;20196;-66
2024/02/23 23:52:13;;;;;;;6.93;3.30;;;7.30;99.90;;;;;;5025614;28;20204;-63
2024/02/23 23:54:39;;;;;;;9.05;3.53;;;7.30;99.90;;;;;;5023859;28;20286;-64
2024/02/23 23:57:05;;;;;;;6.78;3.38;;;7.20;99.90;;;;;;5009338;28;20207;-63
2024/02/23 23:59:30;;;;;;;7.65;3.75;;;7.20;99.90;;;;;;5024413;28;20682;-65
